Time;durP1;ratioP1;P1;durP2;ratioP2;P2;SDS_P1;SDS_P2;PMS_P1;PMS_P2;Temp;Humidity;BMP_temperature;BMP_pressure;BME280_temperature;BME280_humidity;BME280_pressure;Samples;Min_cycle;Max_cycle;Signal;HPM_P1;HPM_P2
2023/09/16 00:01:33;;;;;;;7.90;5.80;;;;;;;25.55;100.00;96096.13;6127327;23;20017;-84
2023/09/16 00:03:58;;;;;;;6.75;5.03;;;;;;;25.70;100.00;96098.13;6127311;23;20001;-83
2023/09/16 00:06:24;;;;;;;8.43;5.10;;;;;;;24.67;100.00;96102.53;6126388;23;20088;-83
2023/09/16 00:08:49;;;;;;;8.35;5.18;;;;;;;25.32;100.00;96102.69;6126855;23;20020;-83
2023/09/16 00:11:15;;;;;;;9.82;6.03;;;;;;;25.55;100.00;96096.13;6127243;23;20001;-84
2023/09/16 00:13:41;;;;;;;7.13;5.20;;;;;;;25.43;100.00;96093.63;6126730;23;20009;-83
2023/09/16 00:16:08;;;;;;;8.98;5.13;;;;;;;25.48;100.00;96090.94;6102802;23;20025;-84
2023/09/16 00:18:34;;;;;;;8.77;5.65;;;;;;;25.04;100.00;96093.75;6127634;23;20005;-83
2023/09/16 00:21:00;;;;;;;7.50;5.45;;;;;;;25.62;100.00;96088.66;6126932;23;20137;-83
2023/09/16 00:23:31;;;;;;;7.75;6.22;;;;;;;24.92;100.00;96090.44;6127039;23;20006;-83
2023/09/16 00:25:57;;;;;;;9.55;5.70;;;;;;;25.13;100.00;96088.78;6102454;23;19993;-83
2023/09/16 00:28:35;;;;;;;7.70;5.43;;;;;;;24.72;100.00;96090.22;6101263;23;20387;-84
2023/09/16 00:31:01;;;;;;;9.23;5.88;;;;;;;25.25;100.00;96086.75;6126699;23;20008;-83
2023/09/16 00:33:29;;;;;;;7.13;5.50;;;;;;;24.95;100.00;96087.25;6127653;23;20029;-83
2023/09/16 00:35:56;;;;;;;9.18;6.00;;;;;;;24.73;100.00;96084.56;6127061;23;20005;-83
2023/09/16 00:38:23;;;;;;;10.20;5.82;;;;;;;24.19;100.00;96085.25;6126461;23;20358;-82
2023/09/16 00:40:49;;;;;;;8.98;6.10;;;;;;;24.89;100.00;96075.59;6126763;23;20005;-83
2023/09/16 00:43:14;;;;;;;8.10;6.05;;;;;;;24.81;100.00;96078.72;6101521;23;20068;-84
2023/09/16 00:45:41;;;;;;;7.47;5.50;;;;;;;25.01;100.00;96077.31;6127269;23;20001;-83
2023/09/16 00:48:07;;;;;;;10.27;6.55;;;;;;;24.66;100.00;96082.09;6099982;23;20017;-84
2023/09/16 00:50:33;;;;;;;10.10;5.70;;;;;;;25.49;100.00;96081.03;6126244;23;20016;-83
2023/09/16 00:53:03;;;;;;;8.73;5.20;;;;;;;24.97;100.00;96087.78;6125123;23;20014;-83
2023/09/16 00:55:28;;;;;;;9.55;6.28;;;;;;;24.65;100.00;96083.16;6101231;23;20028;-83
2023/09/16 00:57:56;;;;;;;8.18;5.70;;;;;;;24.79;100.00;96077.38;6123067;23;20435;-83
2023/09/16 01:00:26;;;;;;;8.70;6.00;;;;;;;24.68;100.00;96077.28;6099426;23;20096;-83
2023/09/16 01:02:56;;;;;;;8.52;6.40;;;;;;;24.69;100.00;96075.41;6124599;23;20349;-84
2023/09/16 01:05:22;;;;;;;9.30;5.95;;;;;;;24.70;100.00;96077.81;6126313;23;20028;-84
2023/09/16 01:07:48;;;;;;;9.75;6.63;;;;;;;24.32;100.00;96081.38;6125288;23;20072;-84
2023/09/16 01:10:15;;;;;;;7.90;6.32;;;;;;;24.62;100.00;96083.66;6126106;23;20010;-84
2023/09/16 01:12:44;;;;;;;8.93;6.07;;;;;;;24.84;100.00;96072.84;6100323;23;20013;-83
2023/09/16 01:15:13;;;;;;;11.07;6.38;;;;;;;23.98;100.00;96076.13;6124573;23;20037;-83
2023/09/16 01:18:23;;;;;;;9.23;6.70;;;;;;;24.31;100.00;96076.25;6124314;23;20042;-83
2023/09/16 01:20:50;;;;;;;9.43;6.40;;;;;;;24.53;100.00;96079.78;6100761;23;20021;-83
2023/09/16 01:23:18;;;;;;;7.68;5.75;;;;;;;24.54;100.00;96070.63;6099290;23;20009;-83
2023/09/16 01:25:44;;;;;;;8.52;5.97;;;;;;;24.20;100.00;96073.44;6126087;23;20060;-83
2023/09/16 01:28:09;;;;;;;10.65;6.32;;;;;;;24.73;100.00;96073.00;6125788;23;20017;-84
2023/09/16 01:30:39;;;;;;;10.70;6.28;;;;;;;24.96;100.00;96070.03;6127409;23;20019;-83
2023/09/16 01:33:16;;;;;;;10.43;7.00;;;;;;;24.18;100.00;96074.75;6125658;23;20001;-83
2023/09/16 01:35:45;;;;;;;9.52;6.38;;;;;;;24.85;100.00;96065.63;6126441;23;20013;-83
2023/09/16 01:38:14;;;;;;;9.93;6.38;;;;;;;24.11;100.00;96072.25;6100996;23;20021;-83
2023/09/16 01:40:43;;;;;;;11.77;6.53;;;;;;;24.36;100.00;96074.44;6126398;23;20032;-83
2023/09/16 01:43:09;;;;;;;9.02;6.25;;;;;;;24.53;100.00;96078.97;6101115;23;20092;-83
2023/09/16 01:45:45;;;;;;;9.00;6.88;;;;;;;24.74;100.00;96074.63;6125927;23;20307;-83
2023/09/16 01:48:11;;;;;;;8.40;6.45;;;;;;;25.07;100.00;96077.13;6101442;23;20045;-83
2023/09/16 01:50:37;;;;;;;10.82;6.97;;;;;;;24.29;100.00;96083.75;6125494;23;20333;-84
2023/09/16 01:53:06;;;;;;;8.30;6.43;;;;;;;25.23;100.00;96074.59;6124931;23;20017;-83
2023/09/16 01:55:32;;;;;;;7.90;6.68;;;;;;;24.82;100.00;96082.25;6101883;23;20406;-83
2023/09/16 01:57:58;;;;;;;9.52;6.15;;;;;;;24.76;100.00;96088.66;6100948;23;20005;-83
2023/09/16 02:00:23;;;;;;;8.27;6.38;;;;;;;24.74;100.00;96080.00;6101703;23;20006;-83
2023/09/16 02:02:54;;;;;;;7.78;5.80;;;;;;;24.70;100.00;96087.78;6129432;23;20092;-84
2023/09/16 02:05:20;;;;;;;9.10;6.28;;;;;;;24.65;100.00;96085.03;6128619;23;20446;-83
2023/09/16 02:07:46;;;;;;;10.75;7.03;;;;;;;24.36;100.00;96081.69;6151818;23;20008;-83
2023/09/16 02:10:12;;;;;;;10.07;7.07;;;;;;;24.60;100.00;96088.47;6104037;23;20342;-83
2023/09/16 02:12:38;;;;;;;9.40;7.07;;;;;;;23.98;100.00;96086.84;6104118;23;20005;-83
2023/09/16 02:15:06;;;;;;;9.25;7.18;;;;;;;23.86;100.00;96091.50;6128406;23;20075;-83
2023/09/16 02:17:33;;;;;;;8.73;6.82;;;;;;;23.92;100.00;96084.34;6128412;23;20139;-84
2023/09/16 02:19:58;;;;;;;9.55;7.10;;;;;;;24.25;100.00;96077.28;6128896;23;20005;-83
2023/09/16 02:22:24;;;;;;;10.32;7.75;;;;;;;24.45;100.00;96088.31;6127640;23;20010;-83
2023/09/16 02:24:49;;;;;;;13.13;6.95;;;;;;;24.45;100.00;96080.25;6102956;23;20338;-83
2023/09/16 02:27:16;;;;;;;8.85;7.38;;;;;;;24.22;100.00;96094.69;6127618;23;20001;-83
2023/09/16 02:29:42;;;;;;;9.52;6.93;;;;;;;23.62;100.00;96095.41;6129049;23;20036;-83
2023/09/16 02:32:08;;;;;;;10.18;7.07;;;;;;;24.67;100.00;96091.75;6128202;23;20005;-83
2023/09/16 02:34:36;;;;;;;10.45;6.95;;;;;;;24.61;100.00;96084.69;6128427;23;20426;-84
2023/09/16 02:37:07;;;;;;;9.65;7.22;;;;;;;24.89;100.00;96085.56;6103311;23;20036;-83
2023/09/16 02:39:33;;;;;;;10.48;7.90;;;;;;;25.10;100.00;96087.38;6128466;23;20008;-83
2023/09/16 02:41:59;;;;;;;10.13;7.05;;;;;;;25.21;100.00;96090.19;6127500;23;20013;-83
2023/09/16 02:44:25;;;;;;;8.82;6.90;;;;;;;24.61;100.00;96090.06;6103996;23;20012;-84
2023/09/16 02:46:52;;;;;;;9.15;7.20;;;;;;;24.67;100.00;96085.56;6128816;23;20002;-83
2023/09/16 02:49:18;;;;;;;9.98;7.45;;;;;;;25.00;100.00;96081.91;6127194;23;20566;-83
2023/09/16 02:51:44;;;;;;;14.18;7.40;;;;;;;25.13;100.00;96086.91;6124002;23;20008;-83
2023/09/16 02:54:10;;;;;;;10.35;7.35;;;;;;;24.75;100.00;96081.63;6127709;23;20008;-83
2023/09/16 02:56:35;;;;;;;10.05;7.25;;;;;;;25.05;100.00;96084.66;6103264;23;20044;-83
2023/09/16 02:59:01;;;;;;;10.00;7.03;;;;;;;24.93;100.00;96083.97;6128118;23;20032;-83
2023/09/16 03:01:27;;;;;;;10.25;7.60;;;;;;;24.86;100.00;96094.13;6128435;23;20418;-83
2023/09/16 03:03:53;;;;;;;10.95;7.18;;;;;;;24.63;100.00;96081.78;6125098;23;20001;-84
2023/09/16 03:06:20;;;;;;;12.05;7.07;;;;;;;24.99;100.00;96092.94;6124650;23;20024;-83
2023/09/16 03:08:46;;;;;;;11.35;6.95;;;;;;;25.09;100.00;96079.56;6124509;23;20238;-83
2023/09/16 03:11:13;;;;;;;12.13;8.27;;;;;;;24.96;100.00;96083.47;6124246;23;20005;-83
2023/09/16 03:13:38;;;;;;;10.38;7.65;;;;;;;25.82;100.00;96086.13;6125398;23;20009;-83
2023/09/16 03:16:21;;;;;;;12.18;8.13;;;;;;;26.02;100.00;96081.94;6124897;23;19993;-84
2023/09/16 03:18:57;;;;;;;10.15;8.32;;;;;;;26.25;100.00;96078.00;6125685;23;20006;-84
2023/09/16 03:21:25;;;;;;;11.25;8.35;;;;;;;25.68;100.00;96084.09;6124892;23;20088;-84
2023/09/16 03:23:54;;;;;;;9.68;7.72;;;;;;;25.76;100.00;96078.25;6101636;23;20037;-83
2023/09/16 03:26:20;;;;;;;11.50;8.18;;;;;;;25.52;100.00;96084.00;6100958;23;19993;-83
2023/09/16 03:28:48;;;;;;;11.17;8.80;;;;;;;25.34;100.00;96079.00;6125239;23;20705;-83
2023/09/16 03:31:15;;;;;;;11.02;8.48;;;;;;;25.02;100.00;96082.47;6123156;23;20029;-84
2023/09/16 03:33:42;;;;;;;12.77;8.25;;;;;;;25.09;100.00;96085.75;6099966;23;20006;-83
2023/09/16 03:36:08;;;;;;;10.88;8.65;;;;;;;25.32;100.00;96081.97;6101176;23;20006;-83
2023/09/16 03:38:43;;;;;;;11.13;8.38;;;;;;;25.59;100.00;96087.28;6125719;23;20056;-84
2023/09/16 03:41:09;;;;;;;10.95;7.90;;;;;;;25.84;99.09;96086.69;6124994;23;20562;-83
2023/09/16 03:43:35;;;;;;;11.27;8.52;;;;;;;25.78;100.00;96081.47;6125851;23;20005;-83
2023/09/16 03:46:02;;;;;;;10.00;7.80;;;;;;;25.80;100.00;96085.56;6100581;23;20338;-83
2023/09/16 03:48:30;;;;;;;10.27;8.20;;;;;;;26.34;99.51;96076.44;6126394;23;20088;-83
2023/09/16 03:50:55;;;;;;;10.32;8.27;;;;;;;25.88;100.00;96088.84;6126944;23;20430;-83
2023/09/16 03:53:25;;;;;;;10.82;8.13;;;;;;;26.26;97.28;96080.47;6126818;23;20006;-83
2023/09/16 03:55:52;;;;;;;9.88;7.80;;;;;;;26.33;96.92;96091.00;6103156;23;20022;-83
2023/09/16 03:58:18;;;;;;;10.00;8.23;;;;;;;26.04;99.22;96091.38;6125678;23;20019;-83
2023/09/16 04:00:45;;;;;;;10.10;7.68;;;;;;;25.84;99.57;96094.75;6128098;23;20009;-83
2023/09/16 04:03:11;;;;;;;11.45;8.75;;;;;;;25.69;100.00;96091.94;6132988;23;20013;-83
2023/09/16 04:05:37;;;;;;;13.95;9.27;;;;;;;25.74;100.00;96088.47;6165148;23;20056;-84
2023/09/16 04:08:03;;;;;;;10.75;8.80;;;;;;;26.03;100.00;96091.66;6107591;23;20706;-83
2023/09/16 04:10:28;;;;;;;12.13;8.80;;;;;;;26.07;99.05;96082.78;6126536;23;20009;-83
2023/09/16 04:12:54;;;;;;;10.05;8.23;;;;;;;25.74;100.00;96089.28;6126354;23;20009;-84
2023/09/16 04:15:20;;;;;;;12.13;9.18;;;;;;;25.79;100.00;96091.22;6126071;23;20012;-83
2023/09/16 04:17:46;;;;;;;11.57;8.40;;;;;;;25.39;100.00;96084.44;6126443;23;20052;-83
2023/09/16 04:20:12;;;;;;;10.48;7.80;;;;;;;25.38;100.00;96085.47;6102400;23;20324;-83
2023/09/16 04:22:38;;;;;;;11.07;8.52;;;;;;;25.19;100.00;96079.69;6127150;23;20060;-83
2023/09/16 04:25:05;;;;;;;12.52;8.90;;;;;;;25.08;100.00;96083.31;6101887;23;20488;-83
2023/09/16 04:27:30;;;;;;;14.95;9.48;;;;;;;25.44;100.00;96087.16;6101831;23;20016;-83
2023/09/16 04:29:56;;;;;;;11.48;9.50;;;;;;;25.56;100.00;96082.41;6102200;23;20390;-83
2023/09/16 04:32:23;;;;;;;12.60;9.50;;;;;;;25.63;100.00;96091.09;6126683;23;20353;-83
2023/09/16 04:34:48;;;;;;;12.52;8.70;;;;;;;25.72;100.00;96085.19;6127260;23;20080;-83
2023/09/16 04:37:15;;;;;;;11.07;9.02;;;;;;;25.86;100.00;96081.03;6101713;23;20001;-84
2023/09/16 04:39:42;;;;;;;10.80;8.38;;;;;;;26.43;95.82;96082.97;6126670;23;20327;-83
2023/09/16 04:42:09;;;;;;;12.70;8.35;;;;;;;26.55;97.73;96082.75;6126387;23;20028;-83
2023/09/16 04:44:38;;;;;;;10.43;8.57;;;;;;;25.72;99.70;96085.19;6126361;23;20005;-83
2023/09/16 04:47:09;;;;;;;13.40;10.38;;;;;;;25.40;100.00;96081.47;6101682;23;19997;-83
2023/09/16 04:49:35;;;;;;;10.57;8.95;;;;;;;24.55;100.00;96082.22;6126304;23;20009;-83
2023/09/16 04:52:04;;;;;;;13.50;8.93;;;;;;;24.49;100.00;96083.22;6126099;23;20005;-83
2023/09/16 04:54:32;;;;;;;11.77;8.90;;;;;;;25.04;100.00;96066.84;6126105;23;20012;-83
2023/09/16 04:56:58;;;;;;;12.68;9.20;;;;;;;25.32;100.00;96065.81;6125878;23;20007;-83
2023/09/16 04:59:24;;;;;;;13.82;9.05;;;;;;;25.34;100.00;96069.03;6125665;23;20141;-83
2023/09/16 05:01:51;;;;;;;12.20;8.85;;;;;;;24.74;100.00;96072.75;6126275;23;20037;-83
2023/09/16 05:04:17;;;;;;;11.45;9.80;;;;;;;24.40;100.00;96070.22;6126206;23;20005;-83
2023/09/16 05:06:43;;;;;;;11.80;9.75;;;;;;;25.14;100.00;96066.97;6101500;23;20132;-83
2023/09/16 05:09:08;;;;;;;11.75;9.43;;;;;;;24.85;100.00;96065.63;6126145;23;20013;-83
2023/09/16 05:11:34;;;;;;;12.32;9.88;;;;;;;24.59;100.00;96070.72;6101505;23;20006;-83
2023/09/16 05:14:01;;;;;;;14.25;10.45;;;;;;;24.63;100.00;96061.06;6102474;23;20009;-83
2023/09/16 05:16:27;;;;;;;15.57;10.18;;;;;;;24.43;100.00;96060.84;6101626;23;20063;-83
2023/09/16 05:18:58;;;;;;;13.80;9.93;;;;;;;24.45;100.00;96061.41;6129187;23;20004;-84
2023/09/16 05:21:23;;;;;;;11.67;9.00;;;;;;;25.28;100.00;96059.28;6129386;23;20001;-83
2023/09/16 05:23:52;;;;;;;11.85;9.50;;;;;;;25.01;100.00;96047.72;6130710;23;20009;-83
2023/09/16 05:26:17;;;;;;;12.40;9.80;;;;;;;24.89;100.00;96054.09;6101183;23;20009;-83
2023/09/16 05:28:44;;;;;;;12.07;9.83;;;;;;;24.60;100.00;96050.81;6102297;23;20015;-83
2023/09/16 05:31:10;;;;;;;12.23;9.40;;;;;;;24.61;100.00;96041.69;6126196;23;20352;-83
2023/09/16 05:33:38;;;;;;;14.30;10.73;;;;;;;24.06;100.00;96048.00;6102334;23;20009;-83
2023/09/16 05:36:15;;;;;;;11.93;9.83;;;;;;;24.13;100.00;96045.94;6102291;23;20056;-84
2023/09/16 05:38:48;;;;;;;14.13;10.20;;;;;;;24.65;100.00;96045.50;6101134;23;20009;-83
2023/09/16 05:41:13;;;;;;;8.73;7.38;;;;;;;24.66;100.00;96057.06;6099911;23;20012;-83
2023/09/16 05:43:39;;;;;;;12.85;10.50;;;;;;;25.00;100.00;96046.91;6101432;23;20350;-83
2023/09/16 05:46:23;;;;;;;15.60;11.50;;;;;;;24.55;100.00;96048.09;6101323;23;20008;-83
2023/09/16 05:48:50;;;;;;;14.07;11.43;;;;;;;24.73;100.00;96046.13;6125604;23;20144;-83
2023/09/16 05:51:15;;;;;;;14.33;10.57;;;;;;;26.44;97.43;96044.13;6125609;23;20032;-83
2023/09/16 05:53:42;;;;;;;12.30;10.40;;;;;;;27.11;90.98;96038.91;6100930;23;20442;-83
2023/09/16 05:56:14;;;;;;;15.63;10.25;;;;;;;27.35;89.21;96031.91;6125185;23;19998;-83
2023/09/16 05:58:44;;;;;;;13.00;10.23;;;;;;;27.40;83.06;96036.50;6101380;23;20020;-83
2023/09/16 06:01:10;;;;;;;11.55;9.43;;;;;;;27.74;85.62;96032.16;6124995;23;20049;-83
2023/09/16 06:03:36;;;;;;;12.02;10.20;;;;;;;27.40;86.28;96026.53;6101030;23;20036;-84
2023/09/16 06:06:01;;;;;;;13.40;10.35;;;;;;;27.32;85.42;96037.84;6124639;23;20327;-84
2023/09/16 06:08:27;;;;;;;11.98;9.98;;;;;;;27.83;82.54;96028.91;6125119;23;20014;-83
2023/09/16 06:10:56;;;;;;;12.25;9.35;;;;;;;28.12;78.18;96027.19;6125281;23;20020;-83
2023/09/16 06:13:22;;;;;;;14.95;10.45;;;;;;;28.12;79.94;96029.09;6125588;23;20020;-83
2023/09/16 06:15:48;;;;;;;11.32;9.10;;;;;;;28.11;82.02;96024.78;6125629;23;20013;-84
2023/09/16 06:18:13;;;;;;;13.65;9.95;;;;;;;27.67;80.50;96031.63;6125053;23;20012;-84
2023/09/16 06:20:41;;;;;;;11.52;8.95;;;;;;;28.72;73.99;96021.00;6125421;23;20009;-83
2023/09/16 06:23:07;;;;;;;10.98;8.93;;;;;;;28.82;73.86;96019.03;6125753;23;20343;-83
2023/09/16 06:25:34;;;;;;;12.48;9.25;;;;;;;28.80;74.28;96028.53;6100945;23;20017;-83
2023/09/16 06:27:59;;;;;;;10.52;9.25;;;;;;;28.69;76.10;96027.78;6125200;23;20037;-84
2023/09/16 06:30:26;;;;;;;12.15;8.88;;;;;;;29.17;70.68;96025.31;6125861;23;20005;-84
2023/09/16 06:32:53;;;;;;;11.13;8.27;;;;;;;29.94;68.55;96032.78;6102055;23;20490;-83
2023/09/16 06:35:19;;;;;;;10.10;8.98;;;;;;;28.65;76.81;96034.84;6108102;23;20060;-84
2023/09/16 06:37:49;;;;;;;11.35;9.45;;;;;;;29.25;74.21;96030.13;6137674;23;20311;-85
2023/09/16 06:40:17;;;;;;;10.27;8.23;;;;;;;30.49;65.08;96035.97;6105254;23;20005;-84
2023/09/16 06:42:43;;;;;;;11.93;9.35;;;;;;;29.30;72.46;96031.97;6125595;23;20060;-84
2023/09/16 06:45:12;;;;;;;11.02;9.18;;;;;;;29.68;70.01;96037.63;6126059;23;20001;-84
2023/09/16 06:47:37;;;;;;;11.55;8.43;;;;;;;31.36;59.70;96032.03;6124329;23;20006;-85
2023/09/16 06:50:04;;;;;;;10.48;8.65;;;;;;;31.28;57.46;96035.41;6100611;23;20100;-85
2023/09/16 06:52:38;;;;;;;11.00;9.13;;;;;;;30.32;63.23;96035.66;6099991;23;20811;-83
2023/09/16 06:55:04;;;;;;;13.93;8.82;;;;;;;31.99;56.21;96028.75;6101015;23;20017;-83
2023/09/16 06:57:31;;;;;;;12.13;9.75;;;;;;;30.75;62.79;96039.13;6124370;23;20009;-83
2023/09/16 06:59:56;;;;;;;10.38;8.88;;;;;;;30.55;62.94;96045.66;6124900;23;20510;-83
2023/09/16 07:02:22;;;;;;;12.05;8.43;;;;;;;30.41;61.06;96039.31;6100288;23;20005;-83
2023/09/16 07:04:49;;;;;;;12.07;8.90;;;;;;;30.35;65.33;96051.31;6124518;23;20438;-83
2023/09/16 07:07:15;;;;;;;11.38;8.57;;;;;;;31.66;57.37;96047.03;6124330;23;20008;-83
2023/09/16 07:09:47;;;;;;;12.10;8.48;;;;;;;30.56;62.21;96047.28;6100482;23;20009;-83
2023/09/16 07:12:13;;;;;;;9.93;8.40;;;;;;;31.43;60.03;96043.34;6124437;23;20009;-83
2023/09/16 07:14:39;;;;;;;9.23;8.15;;;;;;;31.11;57.82;96039.44;6124920;23;20071;-82
2023/09/16 07:17:05;;;;;;;10.27;8.15;;;;;;;32.65;53.73;96039.44;6100146;23;20044;-82
2023/09/16 07:19:31;;;;;;;13.52;9.13;;;;;;;30.59;66.04;96041.25;6124003;23;20032;-81
2023/09/16 07:21:57;;;;;;;10.32;8.32;;;;;;;31.53;59.97;96040.44;6099583;23;20008;-82
2023/09/16 07:24:22;;;;;;;10.60;8.88;;;;;;;32.05;58.05;96043.06;6126623;23;20001;-81
2023/09/16 07:26:49;;;;;;;11.32;8.70;;;;;;;31.67;60.17;96052.16;6125982;23;19997;-82
2023/09/16 07:29:18;;;;;;;10.93;8.52;;;;;;;32.17;56.23;96048.84;6101994;23;20032;-81
2023/09/16 07:31:44;;;;;;;9.77;7.90;;;;;;;33.72;50.19;96056.88;6102099;23;20005;-82
2023/09/16 07:34:09;;;;;;;10.63;7.78;;;;;;;34.39;47.56;96055.91;6153125;23;20009;-82
2023/09/16 07:36:35;;;;;;;9.90;7.15;;;;;;;34.39;46.11;96052.38;6125651;23;20009;-82
2023/09/16 07:39:00;;;;;;;9.93;8.35;;;;;;;34.56;46.92;96051.66;6102364;23;20005;-81
2023/09/16 07:41:26;;;;;;;9.00;6.65;;;;;;;35.35;45.35;96054.19;6102008;23;20005;-81
2023/09/16 07:43:57;;;;;;;7.93;7.13;;;;;;;35.08;44.68;96052.56;6127076;23;20003;-81
2023/09/16 07:46:24;;;;;;;10.67;7.57;;;;;;;34.79;46.83;96061.34;6101986;23;20002;-81
2023/09/16 07:48:53;;;;;;;9.43;7.78;;;;;;;35.02;45.44;96053.06;6126813;23;20389;-82
2023/09/16 07:51:18;;;;;;;9.25;7.40;;;;;;;34.62;47.40;96055.84;6126612;23;20005;-81
2023/09/16 07:53:44;;;;;;;8.18;6.93;;;;;;;35.68;44.69;96053.66;6102107;23;20009;-81
2023/09/16 07:56:09;;;;;;;8.93;7.15;;;;;;;34.84;46.00;96068.56;6128812;23;20048;-81
2023/09/16 07:58:35;;;;;;;10.52;7.47;;;;;;;35.52;45.29;96067.06;6125705;23;20013;-82
2023/09/16 08:01:00;;;;;;;9.05;6.78;;;;;;;36.26;42.38;96062.38;6101392;23;20005;-81
2023/09/16 08:03:26;;;;;;;12.80;7.30;;;;;;;35.52;45.64;96063.53;6126575;23;20013;-81
2023/09/16 08:05:53;;;;;;;9.90;7.20;;;;;;;36.55;42.86;96058.88;6126056;23;20439;-81
2023/09/16 08:08:19;;;;;;;8.75;6.35;;;;;;;35.88;42.67;96058.47;6125849;23;20021;-81
2023/09/16 08:10:51;;;;;;;7.53;6.32;;;;;;;34.78;46.44;96064.41;6126130;23;20007;-82
2023/09/16 08:13:18;;;;;;;10.32;7.82;;;;;;;36.42;42.82;96059.88;6125724;23;20006;-81
2023/09/16 08:15:44;;;;;;;9.82;6.53;;;;;;;36.11;43.19;96061.78;6101648;23;20009;-80
2023/09/16 08:18:09;;;;;;;10.00;7.80;;;;;;;37.34;41.34;96059.16;6124782;23;20005;-79
2023/09/16 08:20:35;;;;;;;12.05;6.90;;;;;;;36.69;41.65;96070.41;6125165;23;20009;-80
2023/09/16 08:23:00;;;;;;;15.68;13.98;;;;;;;37.53;40.33;96065.00;6126142;23;20068;-80
2023/09/16 08:25:29;;;;;;;10.52;7.53;;;;;;;37.25;40.33;96065.50;6101692;23;20009;-80
2023/09/16 08:27:54;;;;;;;6.78;5.90;;;;;;;37.33;39.58;96065.78;6125206;23;20319;-80
2023/09/16 08:30:21;;;;;;;8.80;5.57;;;;;;;37.53;39.14;96064.16;6125787;23;20068;-80
2023/09/16 08:32:56;;;;;;;7.50;6.00;;;;;;;36.64;40.71;96067.03;6125134;23;20029;-80
2023/09/16 08:35:25;;;;;;;9.15;6.28;;;;;;;36.55;41.03;96070.66;6125978;23;20006;-80
2023/09/16 08:37:51;;;;;;;7.75;6.20;;;;;;;38.84;38.00;96059.63;6125119;23;20091;-80
2023/09/16 08:40:17;;;;;;;8.60;6.47;;;;;;;38.02;38.08;96058.84;6100819;23;20036;-79
2023/09/16 08:42:50;;;;;;;8.73;5.75;;;;;;;35.63;42.60;96067.53;6125194;23;20005;-81
2023/09/16 08:45:20;;;;;;;6.85;5.13;;;;;;;36.77;40.74;96066.81;6125146;23;20013;-80
2023/09/16 08:47:50;;;;;;;7.55;5.70;;;;;;;37.15;40.72;96068.66;6099854;23;20060;-79
2023/09/16 08:50:20;;;;;;;7.32;5.47;;;;;;;37.30;40.47;96069.19;6100272;23;20017;-82
2023/09/16 08:52:51;;;;;;;7.55;4.90;;;;;;;37.60;39.42;96068.00;6124881;23;20009;-80
2023/09/16 08:55:18;;;;;;;6.95;4.80;;;;;;;37.27;38.75;96076.94;6101306;23;20687;-78
2023/09/16 08:57:56;;;;;;;7.07;5.20;;;;;;;36.73;39.73;96074.09;6101097;23;20088;-79
2023/09/16 09:00:22;;;;;;;8.65;4.85;;;;;;;36.46;40.06;96074.53;6125990;23;20096;-77
2023/09/16 09:02:48;;;;;;;7.13;5.07;;;;;;;36.52;40.64;96076.78;6126114;23;20040;-78
2023/09/16 09:05:23;;;;;;;6.75;5.10;;;;;;;35.73;42.83;96066.38;6125345;23;20328;-78
2023/09/16 09:07:49;;;;;;;8.63;5.38;;;;;;;35.82;40.67;96067.97;6100199;23;20148;-78
2023/09/16 09:10:15;;;;;;;6.10;4.55;;;;;;;37.35;39.79;96066.25;6129205;23;20021;-78
2023/09/16 09:12:43;;;;;;;7.13;4.63;;;;;;;36.31;39.90;96070.41;6125708;23;20084;-77
2023/09/16 09:15:15;;;;;;;7.30;4.50;;;;;;;36.42;40.32;96071.66;6125839;23;20083;-77
2023/09/16 09:17:42;;;;;;;;;;;;;;;35.77;42.38;96076.34;6100768;23;20002;-77
2023/09/16 09:20:11;;;;;;;5.80;4.65;;;;;;;37.41;38.27;96067.66;6124976;23;19904;-78
2023/09/16 09:22:39;;;;;;;6.68;4.68;;;;;;;37.35;39.37;96068.97;6124827;23;20044;-78
2023/09/16 09:25:06;;;;;;;5.47;4.15;;;;;;;38.22;37.32;96069.75;6100871;23;20010;-77
2023/09/16 09:27:32;;;;;;;5.40;4.05;;;;;;;37.57;37.87;96071.41;6100556;23;20001;-78
2023/09/16 09:29:58;;;;;;;5.80;4.30;;;;;;;37.09;38.48;96075.50;6151405;23;20312;-79
2023/09/16 09:32:31;;;;;;;4.85;3.80;;;;;;;36.30;39.83;96077.81;6125072;23;20059;-79
2023/09/16 09:34:58;;;;;;;4.70;3.28;;;;;;;36.91;38.80;96083.00;6125043;23;20013;-79
2023/09/16 09:37:24;;;;;;;5.22;4.03;;;;;;;36.77;38.21;96077.75;6127050;23;20008;-79
2023/09/16 09:40:15;;;;;;;5.70;3.80;;;;;;;37.15;37.65;96067.84;6127069;23;20029;-79
2023/09/16 09:42:47;;;;;;;5.28;3.53;;;;;;;36.41;39.20;96080.97;6102080;23;20323;-79
2023/09/16 09:45:15;;;;;;;5.60;4.32;;;;;;;36.18;39.45;96080.44;6101072;23;20001;-79
2023/09/16 09:47:42;;;;;;;6.18;3.58;;;;;;;36.35;38.32;96072.16;6124848;23;20001;-79
2023/09/16 09:50:13;;;;;;;5.57;3.92;;;;;;;35.37;39.83;96078.44;6125736;23;20371;-78
2023/09/16 09:52:44;;;;;;;5.90;3.58;;;;;;;37.26;36.89;96072.63;6125675;23;20009;-80
2023/09/16 09:55:09;;;;;;;4.72;3.63;;;;;;;36.87;37.13;96071.09;6125285;23;20009;-79
2023/09/16 09:57:36;;;;;;;4.53;3.25;;;;;;;38.52;35.13;96072.31;6124096;23;20016;-79
2023/09/16 10:00:02;;;;;;;5.07;3.45;;;;;;;38.18;35.88;96079.81;6100788;23;20009;-79
2023/09/16 10:02:40;;;;;;;6.45;3.80;;;;;;;38.54;35.09;96077.47;6126776;23;20017;-79
2023/09/16 10:05:06;;;;;;;5.38;3.67;;;;;;;40.43;33.50;96073.88;6124834;23;20099;-79
2023/09/16 10:07:32;;;;;;;5.75;3.78;;;;;;;37.86;35.83;96080.63;6099678;23;20434;-79
2023/09/16 10:09:58;;;;;;;4.53;3.25;;;;;;;39.30;34.44;96078.66;6123973;23;20022;-79
2023/09/16 10:12:24;;;;;;;3.70;3.03;;;;;;;38.46;33.87;96073.69;6125125;23;20457;-79
2023/09/16 10:14:53;;;;;;;5.22;3.20;;;;;;;37.61;34.99;96077.00;6124875;23;20072;-79
2023/09/16 10:17:21;;;;;;;7.68;3.90;;;;;;;36.92;36.91;96070.88;6124864;23;20044;-79
2023/09/16 10:19:48;;;;;;;5.40;3.40;;;;;;;38.02;35.36;96065.13;6099894;23;20009;-79
2023/09/16 10:22:14;;;;;;;7.22;3.85;;;;;;;37.93;35.51;96067.19;6124823;23;20068;-79
2023/09/16 10:24:41;;;;;;;6.22;4.18;;;;;;;38.20;35.68;96071.25;6099972;23;20017;-79
2023/09/16 10:27:22;;;;;;;4.60;3.50;;;;;;;38.85;34.08;96069.47;6098861;23;20001;-79
2023/09/16 10:30:00;;;;;;;5.13;3.60;;;;;;;39.82;33.41;96064.03;6125197;23;20033;-79
2023/09/16 10:32:27;;;;;;;5.22;3.65;;;;;;;38.31;35.30;96060.59;6125638;23;20036;-80
2023/09/16 10:34:55;;;;;;;5.68;3.83;;;;;;;39.30;34.90;96067.66;6124690;23;20009;-79
2023/09/16 10:37:21;;;;;;;8.48;6.63;;;;;;;40.57;33.48;96054.09;6100589;23;20001;-80
2023/09/16 10:39:46;;;;;;;5.18;3.40;;;;;;;40.01;32.51;96053.13;6124202;23;20067;-79
2023/09/16 10:42:21;;;;;;;5.65;3.42;;;;;;;38.22;33.33;96055.22;6124324;23;20036;-80
2023/09/16 10:44:47;;;;;;;5.35;3.80;;;;;;;39.74;32.58;96057.53;6124815;23;20449;-79
2023/09/16 10:47:17;;;;;;;5.95;3.92;;;;;;;40.00;32.50;96043.25;6124243;23;20005;-78
2023/09/16 10:49:45;;;;;;;6.00;3.50;;;;;;;38.30;34.68;96059.00;6124119;23;20016;-80
2023/09/16 10:52:16;;;;;;;6.20;3.63;;;;;;;39.20;33.57;96057.91;6124589;23;20010;-79
2023/09/16 10:55:04;;;;;;;6.10;3.75;;;;;;;40.12;33.30;96047.09;6125241;23;20116;-79
2023/09/16 10:57:58;;;;;;;7.50;3.88;;;;;;;39.62;32.53;96045.75;6149371;23;20037;-79
2023/09/16 11:00:27;;;;;;;3.95;3.05;;;;;;;40.43;32.44;96047.09;6092088;23;20024;-80
2023/09/16 11:03:02;;;;;;;5.35;3.22;;;;;;;40.03;32.53;96048.06;6100243;23;20012;-79
2023/09/16 11:05:28;;;;;;;4.07;3.20;;;;;;;37.34;35.47;96059.97;6100659;23;20386;-79
2023/09/16 11:07:54;;;;;;;6.20;3.25;;;;;;;39.00;32.93;96059.69;6100006;23;20001;-79
2023/09/16 11:10:21;;;;;;;4.07;3.08;;;;;;;40.28;30.88;96047.94;6150869;23;20009;-79
2023/09/16 11:12:48;;;;;;;4.90;3.22;;;;;;;39.38;31.78;96050.22;6124373;23;20018;-80
2023/09/16 11:15:14;;;;;;;3.58;2.72;;;;;;;40.37;30.98;96043.00;6125078;23;20056;-80
2023/09/16 11:17:39;;;;;;;3.88;3.05;;;;;;;39.45;32.22;96044.91;6100260;23;20009;-80
2023/09/16 11:20:28;;;;;;;4.47;3.22;;;;;;;38.79;32.55;96043.31;6100867;23;20032;-79
2023/09/16 11:22:54;;;;;;;5.43;3.30;;;;;;;38.40;33.52;96036.63;6125920;23;20349;-79
2023/09/16 11:25:19;;;;;;;4.30;3.20;;;;;;;40.42;31.21;96033.69;6131784;23;20009;-79
2023/09/16 11:27:46;;;;;;;5.03;3.40;;;;;;;38.96;33.47;96035.97;6110635;23;20426;-79